sensor_id;sensor_type;location;lat;lon;timestamp;P1;durP1;ratioP1;P2;durP2;ratioP2
63050;SDS011;49136;47.416;19.402;2022-11-12T00:00:31;30.15;;;13.48;;
63050;SDS011;49136;47.416;19.402;2022-11-12T00:02:57;29.65;;;13.30;;
63050;SDS011;49136;47.416;19.402;2022-11-12T00:05:23;31.63;;;13.70;;
63050;SDS011;49136;47.416;19.402;2022-11-12T00:07:48;35.00;;;17.45;;
63050;SDS011;49136;47.416;19.402;2022-11-12T00:10:14;31.23;;;13.48;;
63050;SDS011;49136;47.416;19.402;2022-11-12T00:12:40;36.20;;;13.15;;
63050;SDS011;49136;47.416;19.402;2022-11-12T00:15:05;30.60;;;15.20;;
63050;SDS011;49136;47.416;19.402;2022-11-12T00:17:31;36.83;;;13.95;;
63050;SDS011;49136;47.416;19.402;2022-11-12T00:19:56;29.13;;;14.18;;
63050;SDS011;49136;47.416;19.402;2022-11-12T00:22:22;44.13;;;15.10;;
63050;SDS011;49136;47.416;19.402;2022-11-12T00:24:47;31.45;;;14.70;;
63050;SDS011;49136;47.416;19.402;2022-11-12T00:27:13;31.15;;;14.80;;
63050;SDS011;49136;47.416;19.402;2022-11-12T00:29:38;31.27;;;15.60;;
63050;SDS011;49136;47.416;19.402;2022-11-12T00:32:04;28.90;;;15.07;;
63050;SDS011;49136;47.416;19.402;2022-11-12T00:34:30;30.67;;;16.52;;
63050;SDS011;49136;47.416;19.402;2022-11-12T00:36:56;29.48;;;12.32;;
63050;SDS011;49136;47.416;19.402;2022-11-12T00:39:22;35.03;;;13.77;;
63050;SDS011;49136;47.416;19.402;2022-11-12T00:41:48;26.83;;;12.38;;
63050;SDS011;49136;47.416;19.402;2022-11-12T00:44:13;38.25;;;14.52;;
63050;SDS011;49136;47.416;19.402;2022-11-12T00:46:39;28.77;;;14.57;;
63050;SDS011;49136;47.416;19.402;2022-11-12T00:49:04;26.52;;;13.23;;
63050;SDS011;49136;47.416;19.402;2022-11-12T00:51:30;28.23;;;14.02;;
63050;SDS011;49136;47.416;19.402;2022-11-12T00:53:55;31.70;;;16.27;;
63050;SDS011;49136;47.416;19.402;2022-11-12T00:56:20;34.30;;;13.70;;
63050;SDS011;49136;47.416;19.402;2022-11-12T00:58:46;33.85;;;12.43;;
63050;SDS011;49136;47.416;19.402;2022-11-12T01:01:12;22.30;;;12.30;;
63050;SDS011;49136;47.416;19.402;2022-11-12T01:03:38;31.05;;;13.68;;
63050;SDS011;49136;47.416;19.402;2022-11-12T01:06:09;35.67;;;15.40;;
63050;SDS011;49136;47.416;19.402;2022-11-12T01:08:37;35.90;;;15.93;;
63050;SDS011;49136;47.416;19.402;2022-11-12T01:13:36;43.10;;;16.55;;
63050;SDS011;49136;47.416;19.402;2022-11-12T01:16:06;35.63;;;16.77;;
63050;SDS011;49136;47.416;19.402;2022-11-12T01:18:33;33.60;;;14.68;;
63050;SDS011;49136;47.416;19.402;2022-11-12T01:21:00;36.22;;;16.98;;
63050;SDS011;49136;47.416;19.402;2022-11-12T01:23:26;34.10;;;16.08;;
63050;SDS011;49136;47.416;19.402;2022-11-12T01:25:52;41.10;;;17.02;;
63050;SDS011;49136;47.416;19.402;2022-11-12T01:28:17;41.20;;;14.95;;
63050;SDS011;49136;47.416;19.402;2022-11-12T01:30:42;36.70;;;17.67;;
63050;SDS011;49136;47.416;19.402;2022-11-12T01:33:08;39.58;;;17.88;;
63050;SDS011;49136;47.416;19.402;2022-11-12T01:35:33;43.97;;;18.45;;
63050;SDS011;49136;47.416;19.402;2022-11-12T01:37:58;46.25;;;17.60;;
63050;SDS011;49136;47.416;19.402;2022-11-12T01:40:24;38.75;;;15.88;;
63050;SDS011;49136;47.416;19.402;2022-11-12T01:42:52;37.47;;;17.55;;
63050;SDS011;49136;47.416;19.402;2022-11-12T01:45:18;43.20;;;16.08;;
63050;SDS011;49136;47.416;19.402;2022-11-12T01:47:45;32.53;;;15.32;;
63050;SDS011;49136;47.416;19.402;2022-11-12T01:50:21;36.60;;;14.38;;
63050;SDS011;49136;47.416;19.402;2022-11-12T01:53:03;35.22;;;15.80;;
63050;SDS011;49136;47.416;19.402;2022-11-12T01:55:33;33.85;;;14.45;;
63050;SDS011;49136;47.416;19.402;2022-11-12T01:58:07;33.60;;;13.98;;
63050;SDS011;49136;47.416;19.402;2022-11-12T02:00:33;31.23;;;15.43;;
63050;SDS011;49136;47.416;19.402;2022-11-12T02:02:59;37.25;;;16.20;;
63050;SDS011;49136;47.416;19.402;2022-11-12T02:05:27;39.50;;;16.05;;
63050;SDS011;49136;47.416;19.402;2022-11-12T02:07:55;38.00;;;14.27;;
63050;SDS011;49136;47.416;19.402;2022-11-12T02:10:22;27.95;;;14.73;;
63050;SDS011;49136;47.416;19.402;2022-11-12T02:12:48;37.47;;;14.20;;
63050;SDS011;49136;47.416;19.402;2022-11-12T02:15:33;31.15;;;12.90;;
63050;SDS011;49136;47.416;19.402;2022-11-12T02:17:59;27.10;;;10.98;;
63050;SDS011;49136;47.416;19.402;2022-11-12T02:20:24;44.53;;;14.20;;
63050;SDS011;49136;47.416;19.402;2022-11-12T02:22:50;26.95;;;12.65;;
63050;SDS011;49136;47.416;19.402;2022-11-12T02:25:16;33.30;;;14.85;;
63050;SDS011;49136;47.416;19.402;2022-11-12T02:27:43;28.70;;;13.88;;
63050;SDS011;49136;47.416;19.402;2022-11-12T02:30:10;31.02;;;14.05;;
63050;SDS011;49136;47.416;19.402;2022-11-12T02:32:35;29.55;;;14.73;;
63050;SDS011;49136;47.416;19.402;2022-11-12T02:35:01;28.88;;;14.45;;
63050;SDS011;49136;47.416;19.402;2022-11-12T02:37:26;28.08;;;12.52;;
63050;SDS011;49136;47.416;19.402;2022-11-12T02:39:52;27.55;;;13.63;;
63050;SDS011;49136;47.416;19.402;2022-11-12T02:42:17;28.48;;;13.35;;
63050;SDS011;49136;47.416;19.402;2022-11-12T02:44:42;31.95;;;13.60;;
63050;SDS011;49136;47.416;19.402;2022-11-12T02:47:08;32.83;;;13.85;;
63050;SDS011;49136;47.416;19.402;2022-11-12T02:49:33;37.35;;;13.65;;
63050;SDS011;49136;47.416;19.402;2022-11-12T02:51:59;23.27;;;13.30;;
63050;SDS011;49136;47.416;19.402;2022-11-12T02:54:24;38.92;;;15.98;;
63050;SDS011;49136;47.416;19.402;2022-11-12T02:56:49;34.40;;;14.80;;
63050;SDS011;49136;47.416;19.402;2022-11-12T02:59:15;27.65;;;13.18;;
63050;SDS011;49136;47.416;19.402;2022-11-12T03:01:40;31.33;;;14.43;;
63050;SDS011;49136;47.416;19.402;2022-11-12T03:04:05;27.75;;;12.88;;
63050;SDS011;49136;47.416;19.402;2022-11-12T03:06:31;29.33;;;13.57;;
63050;SDS011;49136;47.416;19.402;2022-11-12T03:08:56;39.88;;;14.57;;
63050;SDS011;49136;47.416;19.402;2022-11-12T03:11:22;33.72;;;15.48;;
63050;SDS011;49136;47.416;19.402;2022-11-12T03:13:47;39.75;;;15.10;;
63050;SDS011;49136;47.416;19.402;2022-11-12T03:16:12;38.88;;;16.25;;
63050;SDS011;49136;47.416;19.402;2022-11-12T03:18:38;38.05;;;17.75;;
63050;SDS011;49136;47.416;19.402;2022-11-12T03:21:03;38.17;;;16.63;;
63050;SDS011;49136;47.416;19.402;2022-11-12T03:23:29;48.60;;;19.05;;
63050;SDS011;49136;47.416;19.402;2022-11-12T03:25:54;35.88;;;14.93;;
63050;SDS011;49136;47.416;19.402;2022-11-12T03:28:20;36.35;;;17.15;;
63050;SDS011;49136;47.416;19.402;2022-11-12T03:30:46;40.63;;;17.23;;
63050;SDS011;49136;47.416;19.402;2022-11-12T03:33:11;27.65;;;13.43;;
63050;SDS011;49136;47.416;19.402;2022-11-12T03:35:38;34.88;;;15.48;;
63050;SDS011;49136;47.416;19.402;2022-11-12T03:38:04;32.00;;;14.35;;
63050;SDS011;49136;47.416;19.402;2022-11-12T03:40:30;26.20;;;13.10;;
63050;SDS011;49136;47.416;19.402;2022-11-12T03:42:57;34.05;;;13.90;;
63050;SDS011;49136;47.416;19.402;2022-11-12T03:45:23;28.10;;;13.45;;
63050;SDS011;49136;47.416;19.402;2022-11-12T03:47:51;40.30;;;15.73;;
63050;SDS011;49136;47.416;19.402;2022-11-12T03:50:18;26.48;;;12.52;;
63050;SDS011;49136;47.416;19.402;2022-11-12T03:52:48;29.40;;;12.13;;
63050;SDS011;49136;47.416;19.402;2022-11-12T03:55:17;32.17;;;14.60;;
63050;SDS011;49136;47.416;19.402;2022-11-12T03:57:45;37.13;;;14.90;;
63050;SDS011;49136;47.416;19.402;2022-11-12T04:00:12;27.65;;;14.00;;
63050;SDS011;49136;47.416;19.402;2022-11-12T04:02:37;30.65;;;14.25;;
63050;SDS011;49136;47.416;19.402;2022-11-12T04:05:03;30.05;;;14.65;;
63050;SDS011;49136;47.416;19.402;2022-11-12T04:07:58;36.92;;;15.68;;
63050;SDS011;49136;47.416;19.402;2022-11-12T04:10:46;27.42;;;13.45;;
63050;SDS011;49136;47.416;19.402;2022-11-12T04:13:13;29.50;;;13.70;;
63050;SDS011;49136;47.416;19.402;2022-11-12T04:18:37;32.67;;;14.60;;
63050;SDS011;49136;47.416;19.402;2022-11-12T04:21:22;22.15;;;10.55;;
63050;SDS011;49136;47.416;19.402;2022-11-12T04:24:08;31.17;;;13.18;;
63050;SDS011;49136;47.416;19.402;2022-11-12T04:26:54;31.85;;;13.40;;
63050;SDS011;49136;47.416;19.402;2022-11-12T04:29:19;31.75;;;13.30;;
63050;SDS011;49136;47.416;19.402;2022-11-12T04:32:03;29.88;;;12.48;;
63050;SDS011;49136;47.416;19.402;2022-11-12T04:34:28;27.42;;;12.07;;
63050;SDS011;49136;47.416;19.402;2022-11-12T04:36:54;23.05;;;12.07;;
63050;SDS011;49136;47.416;19.402;2022-11-12T04:39:19;28.60;;;11.77;;
63050;SDS011;49136;47.416;19.402;2022-11-12T04:41:45;22.38;;;11.82;;
63050;SDS011;49136;47.416;19.402;2022-11-12T04:44:29;29.30;;;11.85;;
63050;SDS011;49136;47.416;19.402;2022-11-12T04:47:13;26.30;;;11.45;;
63050;SDS011;49136;47.416;19.402;2022-11-12T04:49:38;32.97;;;13.15;;
63050;SDS011;49136;47.416;19.402;2022-11-12T04:52:03;23.92;;;12.48;;
63050;SDS011;49136;47.416;19.402;2022-11-12T04:54:29;31.05;;;12.02;;
63050;SDS011;49136;47.416;19.402;2022-11-12T04:56:54;31.10;;;13.55;;
63050;SDS011;49136;47.416;19.402;2022-11-12T04:59:19;34.17;;;13.38;;
63050;SDS011;49136;47.416;19.402;2022-11-12T05:01:45;27.10;;;12.77;;
63050;SDS011;49136;47.416;19.402;2022-11-12T05:04:10;36.10;;;15.32;;
63050;SDS011;49136;47.416;19.402;2022-11-12T05:06:36;34.78;;;13.90;;
63050;SDS011;49136;47.416;19.402;2022-11-12T05:09:17;24.85;;;10.57;;
63050;SDS011;49136;47.416;19.402;2022-11-12T05:11:43;35.47;;;14.32;;
63050;SDS011;49136;47.416;19.402;2022-11-12T05:14:08;38.10;;;16.05;;
63050;SDS011;49136;47.416;19.402;2022-11-12T05:16:34;30.60;;;14.15;;
63050;SDS011;49136;47.416;19.402;2022-11-12T05:18:59;39.58;;;15.13;;
63050;SDS011;49136;47.416;19.402;2022-11-12T05:21:25;23.10;;;11.85;;
63050;SDS011;49136;47.416;19.402;2022-11-12T05:24:09;31.33;;;13.57;;
63050;SDS011;49136;47.416;19.402;2022-11-12T05:26:34;30.45;;;16.17;;
63050;SDS011;49136;47.416;19.402;2022-11-12T05:29:00;31.00;;;13.98;;
63050;SDS011;49136;47.416;19.402;2022-11-12T05:31:25;28.90;;;12.50;;
63050;SDS011;49136;47.416;19.402;2022-11-12T05:33:50;66.57;;;27.10;;
63050;SDS011;49136;47.416;19.402;2022-11-12T05:36:16;61.45;;;26.52;;
63050;SDS011;49136;47.416;19.402;2022-11-12T05:38:41;52.60;;;23.48;;
63050;SDS011;49136;47.416;19.402;2022-11-12T05:41:06;48.78;;;23.45;;
63050;SDS011;49136;47.416;19.402;2022-11-12T05:43:32;39.47;;;19.38;;
63050;SDS011;49136;47.416;19.402;2022-11-12T05:45:57;40.50;;;17.80;;
63050;SDS011;49136;47.416;19.402;2022-11-12T05:48:22;46.60;;;18.63;;
63050;SDS011;49136;47.416;19.402;2022-11-12T05:50:48;43.47;;;16.77;;
63050;SDS011;49136;47.416;19.402;2022-11-12T05:53:14;43.90;;;19.80;;
63050;SDS011;49136;47.416;19.402;2022-11-12T05:55:39;35.83;;;15.90;;
63050;SDS011;49136;47.416;19.402;2022-11-12T05:58:05;73.43;;;26.98;;
63050;SDS011;49136;47.416;19.402;2022-11-12T06:00:31;53.58;;;19.13;;
63050;SDS011;49136;47.416;19.402;2022-11-12T06:03:03;46.38;;;16.17;;
63050;SDS011;49136;47.416;19.402;2022-11-12T06:05:35;36.65;;;14.45;;
63050;SDS011;49136;47.416;19.402;2022-11-12T06:08:01;32.72;;;15.13;;
63050;SDS011;49136;47.416;19.402;2022-11-12T06:10:28;32.08;;;14.13;;
63050;SDS011;49136;47.416;19.402;2022-11-12T06:12:53;40.70;;;15.45;;
63050;SDS011;49136;47.416;19.402;2022-11-12T06:15:19;29.20;;;13.85;;
63050;SDS011;49136;47.416;19.402;2022-11-12T06:17:45;37.28;;;14.60;;
63050;SDS011;49136;47.416;19.402;2022-11-12T06:20:10;37.35;;;14.60;;
63050;SDS011;49136;47.416;19.402;2022-11-12T06:22:36;45.58;;;18.08;;
63050;SDS011;49136;47.416;19.402;2022-11-12T06:25:01;29.42;;;13.15;;
63050;SDS011;49136;47.416;19.402;2022-11-12T06:27:27;33.80;;;13.95;;
63050;SDS011;49136;47.416;19.402;2022-11-12T06:29:53;59.92;;;22.92;;
63050;SDS011;49136;47.416;19.402;2022-11-12T06:32:18;42.90;;;17.85;;
63050;SDS011;49136;47.416;19.402;2022-11-12T06:34:43;59.85;;;16.33;;
63050;SDS011;49136;47.416;19.402;2022-11-12T06:37:09;38.97;;;16.83;;
63050;SDS011;49136;47.416;19.402;2022-11-12T06:39:34;41.17;;;14.32;;
63050;SDS011;49136;47.416;19.402;2022-11-12T06:41:59;49.40;;;17.15;;
63050;SDS011;49136;47.416;19.402;2022-11-12T06:44:26;37.63;;;14.55;;
63050;SDS011;49136;47.416;19.402;2022-11-12T06:46:51;34.05;;;15.55;;
63050;SDS011;49136;47.416;19.402;2022-11-12T06:49:17;47.05;;;16.77;;
63050;SDS011;49136;47.416;19.402;2022-11-12T06:51:42;29.55;;;14.32;;
63050;SDS011;49136;47.416;19.402;2022-11-12T06:54:08;49.35;;;17.67;;
63050;SDS011;49136;47.416;19.402;2022-11-12T06:56:33;37.25;;;15.15;;
63050;SDS011;49136;47.416;19.402;2022-11-12T06:58:58;43.50;;;15.77;;
63050;SDS011;49136;47.416;19.402;2022-11-12T07:01:24;42.65;;;17.20;;
63050;SDS011;49136;47.416;19.402;2022-11-12T07:03:50;49.92;;;21.02;;
63050;SDS011;49136;47.416;19.402;2022-11-12T07:06:17;48.22;;;19.20;;
63050;SDS011;49136;47.416;19.402;2022-11-12T07:08:44;53.05;;;18.83;;
63050;SDS011;49136;47.416;19.402;2022-11-12T07:11:13;64.95;;;24.00;;
63050;SDS011;49136;47.416;19.402;2022-11-12T07:13:39;58.20;;;20.73;;
63050;SDS011;49136;47.416;19.402;2022-11-12T07:16:05;49.10;;;19.58;;
63050;SDS011;49136;47.416;19.402;2022-11-12T07:18:32;46.50;;;19.67;;
63050;SDS011;49136;47.416;19.402;2022-11-12T07:20:59;40.72;;;17.30;;
63050;SDS011;49136;47.416;19.402;2022-11-12T07:23:26;44.70;;;17.75;;
63050;SDS011;49136;47.416;19.402;2022-11-12T07:26:02;58.40;;;20.75;;
63050;SDS011;49136;47.416;19.402;2022-11-12T07:28:32;44.03;;;18.40;;
63050;SDS011;49136;47.416;19.402;2022-11-12T07:30:59;62.00;;;19.95;;
63050;SDS011;49136;47.416;19.402;2022-11-12T07:33:27;53.92;;;20.08;;
63050;SDS011;49136;47.416;19.402;2022-11-12T07:35:56;48.88;;;17.27;;
63050;SDS011;49136;47.416;19.402;2022-11-12T07:38:23;44.45;;;16.73;;
63050;SDS011;49136;47.416;19.402;2022-11-12T07:40:49;60.85;;;23.10;;
63050;SDS011;49136;47.416;19.402;2022-11-12T07:43:14;58.35;;;19.38;;
63050;SDS011;49136;47.416;19.402;2022-11-12T07:45:40;53.75;;;21.15;;
63050;SDS011;49136;47.416;19.402;2022-11-12T07:48:06;66.93;;;21.63;;
63050;SDS011;49136;47.416;19.402;2022-11-12T07:50:31;48.42;;;19.60;;
63050;SDS011;49136;47.416;19.402;2022-11-12T07:52:57;47.60;;;19.23;;
63050;SDS011;49136;47.416;19.402;2022-11-12T07:55:23;42.35;;;17.85;;
63050;SDS011;49136;47.416;19.402;2022-11-12T07:57:48;51.17;;;21.92;;
63050;SDS011;49136;47.416;19.402;2022-11-12T08:00:14;57.25;;;23.15;;
63050;SDS011;49136;47.416;19.402;2022-11-12T08:02:39;58.45;;;21.92;;
63050;SDS011;49136;47.416;19.402;2022-11-12T08:05:05;64.28;;;22.25;;
63050;SDS011;49136;47.416;19.402;2022-11-12T08:07:31;72.18;;;22.48;;
63050;SDS011;49136;47.416;19.402;2022-11-12T08:09:56;68.78;;;24.85;;
63050;SDS011;49136;47.416;19.402;2022-11-12T08:12:22;50.30;;;20.27;;
63050;SDS011;49136;47.416;19.402;2022-11-12T08:14:48;56.50;;;21.20;;
63050;SDS011;49136;47.416;19.402;2022-11-12T08:17:13;64.80;;;23.70;;
63050;SDS011;49136;47.416;19.402;2022-11-12T08:19:39;60.70;;;24.23;;
63050;SDS011;49136;47.416;19.402;2022-11-12T08:22:04;62.22;;;20.65;;
63050;SDS011;49136;47.416;19.402;2022-11-12T08:24:29;58.97;;;22.65;;
63050;SDS011;49136;47.416;19.402;2022-11-12T08:26:55;65.88;;;22.95;;
63050;SDS011;49136;47.416;19.402;2022-11-12T08:29:20;58.53;;;21.73;;
63050;SDS011;49136;47.416;19.402;2022-11-12T08:31:47;68.68;;;22.10;;
63050;SDS011;49136;47.416;19.402;2022-11-12T08:34:12;72.47;;;28.33;;
63050;SDS011;49136;47.416;19.402;2022-11-12T08:36:38;59.50;;;23.67;;
63050;SDS011;49136;47.416;19.402;2022-11-12T08:39:04;58.60;;;23.55;;
63050;SDS011;49136;47.416;19.402;2022-11-12T08:41:31;58.42;;;22.40;;
63050;SDS011;49136;47.416;19.402;2022-11-12T08:43:56;50.08;;;21.70;;
63050;SDS011;49136;47.416;19.402;2022-11-12T08:46:22;53.72;;;20.48;;
63050;SDS011;49136;47.416;19.402;2022-11-12T08:48:47;63.55;;;25.10;;
63050;SDS011;49136;47.416;19.402;2022-11-12T08:51:13;62.13;;;25.02;;
63050;SDS011;49136;47.416;19.402;2022-11-12T08:53:38;54.72;;;22.45;;
63050;SDS011;49136;47.416;19.402;2022-11-12T08:56:03;64.55;;;20.00;;
63050;SDS011;49136;47.416;19.402;2022-11-12T08:58:29;52.72;;;22.45;;
63050;SDS011;49136;47.416;19.402;2022-11-12T09:00:54;52.95;;;20.70;;
63050;SDS011;49136;47.416;19.402;2022-11-12T09:03:21;55.60;;;22.10;;
63050;SDS011;49136;47.416;19.402;2022-11-12T09:05:48;51.70;;;19.70;;
63050;SDS011;49136;47.416;19.402;2022-11-12T09:08:16;51.22;;;21.08;;
63050;SDS011;49136;47.416;19.402;2022-11-12T09:10:43;50.17;;;20.33;;
63050;SDS011;49136;47.416;19.402;2022-11-12T09:13:09;47.10;;;18.85;;
63050;SDS011;49136;47.416;19.402;2022-11-12T09:15:35;43.50;;;19.60;;
63050;SDS011;49136;47.416;19.402;2022-11-12T09:18:01;57.58;;;18.50;;
63050;SDS011;49136;47.416;19.402;2022-11-12T09:20:28;53.75;;;19.35;;
63050;SDS011;49136;47.416;19.402;2022-11-12T09:22:58;42.20;;;17.63;;
63050;SDS011;49136;47.416;19.402;2022-11-12T09:25:25;38.60;;;17.33;;
63050;SDS011;49136;47.416;19.402;2022-11-12T09:27:50;41.17;;;15.45;;
63050;SDS011;49136;47.416;19.402;2022-11-12T09:30:15;36.15;;;14.50;;
63050;SDS011;49136;47.416;19.402;2022-11-12T09:32:41;43.55;;;14.23;;
63050;SDS011;49136;47.416;19.402;2022-11-12T09:35:06;36.03;;;14.45;;
63050;SDS011;49136;47.416;19.402;2022-11-12T09:37:32;38.85;;;15.68;;
63050;SDS011;49136;47.416;19.402;2022-11-12T09:39:57;42.83;;;15.38;;
63050;SDS011;49136;47.416;19.402;2022-11-12T09:42:22;39.78;;;15.10;;
63050;SDS011;49136;47.416;19.402;2022-11-12T09:44:53;35.15;;;14.48;;
63050;SDS011;49136;47.416;19.402;2022-11-12T09:49:50;35.72;;;15.65;;
63050;SDS011;49136;47.416;19.402;2022-11-12T09:52:23;36.42;;;14.98;;
63050;SDS011;49136;47.416;19.402;2022-11-12T09:54:53;38.70;;;15.40;;
63050;SDS011;49136;47.416;19.402;2022-11-12T09:57:42;39.67;;;16.40;;
63050;SDS011;49136;47.416;19.402;2022-11-12T10:00:13;42.42;;;16.20;;
63050;SDS011;49136;47.416;19.402;2022-11-12T10:02:41;41.28;;;14.73;;
63050;SDS011;49136;47.416;19.402;2022-11-12T10:05:22;31.85;;;13.98;;
63050;SDS011;49136;47.416;19.402;2022-11-12T10:10:52;30.58;;;13.80;;
63050;SDS011;49136;47.416;19.402;2022-11-12T10:22:13;27.95;;;12.23;;
63050;SDS011;49136;47.416;19.402;2022-11-12T10:24:45;35.40;;;13.75;;
63050;SDS011;49136;47.416;19.402;2022-11-12T10:27:22;29.45;;;12.85;;
63050;SDS011;49136;47.416;19.402;2022-11-12T10:30:02;27.77;;;11.70;;
63050;SDS011;49136;47.416;19.402;2022-11-12T10:32:30;30.20;;;13.43;;
63050;SDS011;49136;47.416;19.402;2022-11-12T10:35:01;31.05;;;15.57;;
63050;SDS011;49136;47.416;19.402;2022-11-12T10:37:28;32.53;;;14.63;;
63050;SDS011;49136;47.416;19.402;2022-11-12T10:42:55;39.60;;;14.50;;
63050;SDS011;49136;47.416;19.402;2022-11-12T10:45:33;51.55;;;17.10;;
63050;SDS011;49136;47.416;19.402;2022-11-12T10:47:59;49.05;;;19.30;;
63050;SDS011;49136;47.416;19.402;2022-11-12T10:50:34;53.65;;;18.20;;
63050;SDS011;49136;47.416;19.402;2022-11-12T10:53:05;33.72;;;14.10;;
63050;SDS011;49136;47.416;19.402;2022-11-12T10:55:35;33.85;;;15.10;;
63050;SDS011;49136;47.416;19.402;2022-11-12T10:58:23;36.97;;;15.82;;
63050;SDS011;49136;47.416;19.402;2022-11-12T11:00:52;41.78;;;16.20;;
63050;SDS011;49136;47.416;19.402;2022-11-12T11:03:22;44.78;;;14.48;;
63050;SDS011;49136;47.416;19.402;2022-11-12T11:05:59;38.08;;;14.02;;
63050;SDS011;49136;47.416;19.402;2022-11-12T11:08:47;35.85;;;14.63;;
63050;SDS011;49136;47.416;19.402;2022-11-12T11:11:24;40.47;;;14.48;;
63050;SDS011;49136;47.416;19.402;2022-11-12T11:13:52;29.13;;;13.55;;
63050;SDS011;49136;47.416;19.402;2022-11-12T11:16:23;32.50;;;14.73;;
63050;SDS011;49136;47.416;19.402;2022-11-12T11:19:00;35.72;;;13.85;;
63050;SDS011;49136;47.416;19.402;2022-11-12T11:30:04;29.13;;;12.23;;
63050;SDS011;49136;47.416;19.402;2022-11-12T11:44:14;34.40;;;13.00;;
63050;SDS011;49136;47.416;19.402;2022-11-12T11:57:51;48.70;;;15.32;;
63050;SDS011;49136;47.416;19.402;2022-11-12T12:00:44;37.15;;;12.95;;
63050;SDS011;49136;47.416;19.402;2022-11-12T12:03:19;36.20;;;15.30;;
63050;SDS011;49136;47.416;19.402;2022-11-12T12:11:14;29.83;;;11.95;;
63050;SDS011;49136;47.416;19.402;2022-11-12T12:16:55;36.50;;;12.48;;
63050;SDS011;49136;47.416;19.402;2022-11-12T12:22:17;33.22;;;11.88;;
63050;SDS011;49136;47.416;19.402;2022-11-12T12:25:09;30.25;;;13.90;;
63050;SDS011;49136;47.416;19.402;2022-11-12T12:27:59;49.30;;;14.80;;
63050;SDS011;49136;47.416;19.402;2022-11-12T12:30:33;36.70;;;14.45;;
63050;SDS011;49136;47.416;19.402;2022-11-12T12:41:15;38.55;;;13.90;;
63050;SDS011;49136;47.416;19.402;2022-11-12T12:43:53;38.35;;;14.10;;
63050;SDS011;49136;47.416;19.402;2022-11-12T12:46:23;40.80;;;16.57;;
63050;SDS011;49136;47.416;19.402;2022-11-12T12:48:51;34.60;;;14.60;;
63050;SDS011;49136;47.416;19.402;2022-11-12T12:51:18;46.50;;;17.35;;
63050;SDS011;49136;47.416;19.402;2022-11-12T12:53:44;33.10;;;15.30;;
63050;SDS011;49136;47.416;19.402;2022-11-12T12:58:41;41.22;;;14.40;;
63050;SDS011;49136;47.416;19.402;2022-11-12T13:03:54;42.83;;;14.82;;
63050;SDS011;49136;47.416;19.402;2022-11-12T13:37:52;29.92;;;12.70;;
63050;SDS011;49136;47.416;19.402;2022-11-12T13:40:30;39.10;;;12.38;;
63050;SDS011;49136;47.416;19.402;2022-11-12T13:45:27;31.02;;;13.85;;
63050;SDS011;49136;47.416;19.402;2022-11-12T13:47:53;34.75;;;13.35;;
63050;SDS011;49136;47.416;19.402;2022-11-12T13:50:20;32.17;;;13.85;;
63050;SDS011;49136;47.416;19.402;2022-11-12T13:52:47;37.35;;;13.95;;
63050;SDS011;49136;47.416;19.402;2022-11-12T13:55:14;44.03;;;15.13;;
63050;SDS011;49136;47.416;19.402;2022-11-12T13:57:47;43.15;;;15.13;;
63050;SDS011;49136;47.416;19.402;2022-11-12T14:02:42;30.80;;;12.30;;
63050;SDS011;49136;47.416;19.402;2022-11-12T14:05:14;36.88;;;15.30;;
63050;SDS011;49136;47.416;19.402;2022-11-12T14:21:16;41.70;;;16.27;;
63050;SDS011;49136;47.416;19.402;2022-11-12T14:23:43;40.03;;;16.75;;
63050;SDS011;49136;47.416;19.402;2022-11-12T14:26:11;51.47;;;17.80;;
63050;SDS011;49136;47.416;19.402;2022-11-12T14:28:37;37.05;;;14.50;;
63050;SDS011;49136;47.416;19.402;2022-11-12T14:31:10;48.40;;;16.13;;
63050;SDS011;49136;47.416;19.402;2022-11-12T14:33:37;47.05;;;19.45;;
63050;SDS011;49136;47.416;19.402;2022-11-12T14:36:06;45.30;;;16.95;;
63050;SDS011;49136;47.416;19.402;2022-11-12T14:38:39;36.72;;;16.23;;
63050;SDS011;49136;47.416;19.402;2022-11-12T14:43:45;56.00;;;20.15;;
63050;SDS011;49136;47.416;19.402;2022-11-12T14:46:23;51.88;;;20.25;;
63050;SDS011;49136;47.416;19.402;2022-11-12T14:48:53;46.55;;;19.58;;
63050;SDS011;49136;47.416;19.402;2022-11-12T14:51:24;60.05;;;18.65;;
63050;SDS011;49136;47.416;19.402;2022-11-12T14:53:57;42.92;;;17.75;;
63050;SDS011;49136;47.416;19.402;2022-11-12T14:56:27;45.03;;;20.20;;
63050;SDS011;49136;47.416;19.402;2022-11-12T14:58:56;63.90;;;20.40;;
63050;SDS011;49136;47.416;19.402;2022-11-12T15:04:02;56.05;;;20.85;;
63050;SDS011;49136;47.416;19.402;2022-11-12T15:06:39;65.30;;;21.23;;
63050;SDS011;49136;47.416;19.402;2022-11-12T15:09:05;74.47;;;24.60;;
63050;SDS011;49136;47.416;19.402;2022-11-12T15:11:32;81.95;;;26.02;;
63050;SDS011;49136;47.416;19.402;2022-11-12T15:13:58;80.90;;;28.00;;
63050;SDS011;49136;47.416;19.402;2022-11-12T15:16:31;57.42;;;21.83;;
63050;SDS011;49136;47.416;19.402;2022-11-12T15:22:15;88.10;;;30.90;;
63050;SDS011;49136;47.416;19.402;2022-11-12T15:24:34;81.05;;;30.90;;
63050;SDS011;49136;47.416;19.402;2022-11-12T15:35:38;53.92;;;20.70;;
63050;SDS011;49136;47.416;19.402;2022-11-12T15:41:02;61.58;;;21.23;;
63050;SDS011;49136;47.416;19.402;2022-11-12T15:43:33;56.70;;;19.95;;
63050;SDS011;49136;47.416;19.402;2022-11-12T15:46:00;54.53;;;21.05;;
63050;SDS011;49136;47.416;19.402;2022-11-12T15:48:26;57.17;;;22.38;;
63050;SDS011;49136;47.416;19.402;2022-11-12T15:50:51;54.78;;;20.52;;
63050;SDS011;49136;47.416;19.402;2022-11-12T15:53:18;49.88;;;20.17;;
63050;SDS011;49136;47.416;19.402;2022-11-12T15:55:44;47.53;;;19.92;;
63050;SDS011;49136;47.416;19.402;2022-11-12T15:58:11;46.55;;;18.33;;
63050;SDS011;49136;47.416;19.402;2022-11-12T16:00:40;39.90;;;17.67;;
63050;SDS011;49136;47.416;19.402;2022-11-12T16:05:38;61.17;;;22.25;;
63050;SDS011;49136;47.416;19.402;2022-11-12T16:08:04;47.78;;;19.40;;
63050;SDS011;49136;47.416;19.402;2022-11-12T16:10:29;51.13;;;22.85;;
63050;SDS011;49136;47.416;19.402;2022-11-12T16:12:56;58.08;;;22.38;;
63050;SDS011;49136;47.416;19.402;2022-11-12T16:15:23;69.50;;;25.40;;
63050;SDS011;49136;47.416;19.402;2022-11-12T16:17:50;55.50;;;22.48;;
63050;SDS011;49136;47.416;19.402;2022-11-12T16:20:29;68.72;;;25.85;;
63050;SDS011;49136;47.416;19.402;2022-11-12T16:22:56;64.07;;;26.20;;
63050;SDS011;49136;47.416;19.402;2022-11-12T16:25:22;56.83;;;26.25;;
63050;SDS011;49136;47.416;19.402;2022-11-12T16:27:51;59.97;;;24.83;;
63050;SDS011;49136;47.416;19.402;2022-11-12T16:30:18;68.82;;;27.55;;
63050;SDS011;49136;47.416;19.402;2022-11-12T16:32:48;76.32;;;31.77;;
63050;SDS011;49136;47.416;19.402;2022-11-12T16:35:14;133.75;;;46.55;;
63050;SDS011;49136;47.416;19.402;2022-11-12T16:37:44;116.10;;;44.22;;
63050;SDS011;49136;47.416;19.402;2022-11-12T16:40:17;142.85;;;49.97;;
63050;SDS011;49136;47.416;19.402;2022-11-12T16:42:48;116.43;;;39.55;;
63050;SDS011;49136;47.416;19.402;2022-11-12T16:45:14;100.85;;;35.50;;